createdAt,value
2023-09-05T00:01:31.109Z,17.49
2023-09-05T00:06:32.774Z,17.40
2023-09-05T00:11:35.514Z,17.42
2023-09-05T00:16:37.044Z,17.39
2023-09-05T00:21:38.488Z,17.30
2023-09-05T00:26:41.046Z,17.42
2023-09-05T00:31:42.609Z,17.38
2023-09-05T00:36:44.112Z,17.31
2023-09-05T00:41:46.364Z,17.23
2023-09-05T00:46:48.447Z,17.13
2023-09-05T00:51:54.520Z,17.16
2023-09-05T00:56:56.319Z,17.24
2023-09-05T01:01:58.195Z,17.18
2023-09-05T01:07:57.026Z,17.24
2023-09-05T01:12:59.915Z,17.27
2023-09-05T01:18:01.508Z,17.30
2023-09-05T01:23:17.378Z,17.28
2023-09-05T01:28:24.273Z,17.30
2023-09-05T01:33:25.921Z,17.28
2023-09-05T01:38:27.642Z,17.31
2023-09-05T01:43:29.207Z,17.28
2023-09-05T01:48:30.685Z,17.27
2023-09-05T01:53:32.230Z,17.26
2023-09-05T01:58:33.802Z,17.27
2023-09-05T02:03:35.322Z,17.26
2023-09-05T02:08:36.876Z,17.24
2023-09-05T02:13:38.375Z,17.24
2023-09-05T02:18:40.975Z,17.25
2023-09-05T02:23:43.150Z,17.26
2023-09-05T02:28:46.026Z,17.30
2023-09-05T02:33:47.612Z,17.30
2023-09-05T02:38:49.211Z,17.23
2023-09-05T02:43:50.972Z,17.24
2023-09-05T02:48:52.442Z,17.21
2023-09-05T02:53:57.953Z,17.15
2023-09-05T02:58:59.597Z,17.10
2023-09-05T03:04:01.069Z,17.14
2023-09-05T03:09:04.925Z,17.15
2023-09-05T03:14:06.373Z,17.16
2023-09-05T03:19:08.087Z,17.19
2023-09-05T03:24:09.641Z,17.21
2023-09-05T03:29:11.110Z,17.09
2023-09-05T03:34:12.668Z,17.12
2023-09-05T03:39:14.219Z,17.14
2023-09-05T03:44:18.078Z,17.10
2023-09-05T03:49:19.654Z,17.04
2023-09-05T03:54:21.141Z,17.03
2023-09-05T03:59:22.682Z,17.07
2023-09-05T04:04:24.174Z,17.12
2023-09-05T04:09:25.690Z,17.12
2023-09-05T04:14:27.130Z,17.11
2023-09-05T04:19:28.571Z,17.15
2023-09-05T04:24:30.133Z,17.12
2023-09-05T04:29:31.741Z,17.09
2023-09-05T04:34:33.501Z,17.09
2023-09-05T04:39:35.644Z,17.08
2023-09-05T04:44:37.165Z,17.07
2023-09-05T04:49:38.663Z,17.10
2023-09-05T04:54:40.230Z,17.11
2023-09-05T04:59:45.038Z,17.14
2023-09-05T05:04:47.220Z,17.12
2023-09-05T05:09:49.077Z,17.12
2023-09-05T05:14:50.718Z,17.10
2023-09-05T05:19:52.193Z,17.01
2023-09-05T05:24:53.707Z,17.01
2023-09-05T05:29:55.265Z,17.04
2023-09-05T05:34:56.737Z,17.07
2023-09-05T05:39:58.692Z,17.10
2023-09-05T05:45:00.206Z,17.10
2023-09-05T05:50:01.663Z,17.04
2023-09-05T05:55:03.256Z,17.07
2023-09-05T06:00:06.420Z,17.11
2023-09-05T06:05:09.144Z,17.15
2023-09-05T06:10:10.913Z,17.24
2023-09-05T06:15:12.581Z,17.32
2023-09-05T06:20:14.942Z,17.43
2023-09-05T06:25:17.466Z,17.52
2023-09-05T06:30:19.096Z,17.68
2023-09-05T06:35:20.680Z,17.79
2023-09-05T06:40:22.407Z,18.01
2023-09-05T06:45:23.906Z,18.17
2023-09-05T06:50:25.604Z,18.38
2023-09-05T06:55:29.766Z,18.47
2023-09-05T07:00:31.582Z,18.54
2023-09-05T07:05:34.119Z,18.75
2023-09-05T07:10:35.639Z,18.94
2023-09-05T07:15:37.349Z,19.08
2023-09-05T07:20:38.964Z,19.30
2023-09-05T07:25:40.695Z,19.46
2023-09-05T07:30:42.389Z,19.58
2023-09-05T07:35:45.509Z,19.73
2023-09-05T07:40:47.130Z,19.77
2023-09-05T07:45:48.696Z,19.89
2023-09-05T07:50:52.564Z,20.21
2023-09-05T07:55:54.379Z,20.36
2023-09-05T08:00:56.133Z,20.49
2023-09-05T08:05:57.773Z,20.60
2023-09-05T08:10:59.341Z,20.65
2023-09-05T08:16:01.437Z,20.69
2023-09-05T08:21:05.571Z,20.68
2023-09-05T08:26:12.534Z,20.83
2023-09-05T08:31:18.610Z,21.01
2023-09-05T08:36:21.127Z,21.19
2023-09-05T08:41:23.444Z,21.34
2023-09-05T08:46:26.347Z,21.34
2023-09-05T08:51:33.783Z,21.47
2023-09-05T08:56:35.321Z,21.74
2023-09-05T09:01:37.004Z,21.79
2023-09-05T09:06:39.605Z,22.12
2023-09-05T09:11:41.145Z,22.41
2023-09-05T09:16:47.155Z,22.61
2023-09-05T09:21:49.990Z,22.75
2023-09-05T09:26:54.401Z,22.97
2023-09-05T09:32:07.491Z,23.24
2023-09-05T09:37:10.512Z,23.55
2023-09-05T09:42:12.049Z,23.74
2023-09-05T09:47:13.835Z,23.82
2023-09-05T09:52:21.334Z,24.09
2023-09-05T09:57:43.070Z,24.14
2023-09-05T10:02:47.086Z,24.23
2023-09-05T10:07:49.894Z,24.67
2023-09-05T10:12:52.859Z,24.82
2023-09-05T10:17:55.634Z,24.95
2023-09-05T10:22:58.925Z,25.26
2023-09-05T10:28:00.488Z,25.48
2023-09-05T10:33:02.044Z,25.35
2023-09-05T10:38:06.417Z,25.58
2023-09-05T10:43:16.968Z,25.95
2023-09-05T10:48:37.509Z,26.20
2023-09-05T10:53:44.404Z,25.81
2023-09-05T10:58:55.060Z,25.48
2023-09-05T11:04:08.474Z,25.52
2023-09-05T11:09:10.481Z,25.88
2023-09-05T11:14:12.169Z,26.21
2023-09-05T11:19:30.428Z,26.34
2023-09-05T11:24:33.139Z,26.35
2023-09-05T11:29:35.456Z,26.00
2023-09-05T11:34:36.972Z,26.30
2023-09-05T11:39:38.494Z,26.25
2023-09-05T11:44:40.044Z,26.37
2023-09-05T11:49:41.866Z,26.50
2023-09-05T11:54:43.788Z,26.43
2023-09-05T11:59:46.604Z,26.33
2023-09-05T12:04:49.457Z,26.20
2023-09-05T12:09:51.087Z,26.42
2023-09-05T12:15:00.632Z,26.46
2023-09-05T12:20:09.274Z,26.32
2023-09-05T12:25:18.825Z,26.39
2023-09-05T12:30:30.844Z,26.61
2023-09-05T12:35:33.534Z,26.66
2023-09-05T12:40:35.194Z,26.42
2023-09-05T12:45:36.775Z,26.53
2023-09-05T12:50:38.330Z,26.63
2023-09-05T12:55:40.297Z,26.55
2023-09-05T13:00:42.389Z,26.58
2023-09-05T13:05:44.932Z,26.85
2023-09-05T13:10:46.439Z,26.83
2023-09-05T13:15:48.031Z,26.76
2023-09-05T13:20:49.636Z,26.79
2023-09-05T13:25:51.355Z,26.93
2023-09-05T13:30:52.916Z,26.89
2023-09-05T13:35:54.444Z,26.93
2023-09-05T13:40:55.928Z,27.08
2023-09-05T13:45:57.475Z,26.99
2023-09-05T13:50:59.006Z,27.20
2023-09-05T13:56:00.577Z,27.16
2023-09-05T14:01:02.093Z,27.14
2023-09-05T14:06:03.703Z,27.32
2023-09-05T14:11:05.273Z,27.21
2023-09-05T14:16:06.938Z,27.10
2023-09-05T14:21:09.181Z,27.16
2023-09-05T14:26:10.826Z,27.09
2023-09-05T14:31:12.810Z,27.13
2023-09-05T14:36:14.343Z,27.11
2023-09-05T14:41:15.851Z,27.09
2023-09-05T14:46:17.360Z,27.18
2023-09-05T14:51:19.089Z,27.15
2023-09-05T14:56:21.082Z,27.09
2023-09-05T15:01:22.778Z,27.07
2023-09-05T15:06:24.429Z,27.07
2023-09-05T15:11:25.921Z,27.00
2023-09-05T15:16:29.716Z,26.95
2023-09-05T15:21:31.292Z,26.96
2023-09-05T15:26:36.666Z,26.99
2023-09-05T15:31:39.200Z,26.89
2023-09-05T15:36:40.822Z,26.90
2023-09-05T15:41:42.412Z,26.90
2023-09-05T15:46:45.467Z,26.90
2023-09-05T15:51:47.141Z,26.87
2023-09-05T15:56:49.247Z,26.84
2023-09-05T16:01:51.109Z,26.84
2023-09-05T16:06:52.616Z,26.83
2023-09-05T16:11:54.963Z,26.78
2023-09-05T16:17:01.874Z,26.72
2023-09-05T16:22:03.536Z,26.77
2023-09-05T16:27:05.367Z,26.71
2023-09-05T16:32:07.637Z,26.67
2023-09-05T16:37:09.444Z,26.60
2023-09-05T16:42:12.735Z,26.64
2023-09-05T16:47:15.123Z,26.65
2023-09-05T16:52:16.599Z,26.62
2023-09-05T16:57:18.516Z,26.59
2023-09-05T17:02:21.209Z,26.55
2023-09-05T17:07:22.791Z,26.55
2023-09-05T17:12:24.388Z,26.47
2023-09-05T17:17:25.982Z,26.44
2023-09-05T17:22:27.508Z,26.38
2023-09-05T17:27:29.186Z,26.28
2023-09-05T17:32:30.633Z,26.22
2023-09-05T17:37:32.224Z,26.18
2023-09-05T17:42:33.861Z,26.10
2023-09-05T17:47:37.024Z,26.02
2023-09-05T17:52:38.655Z,25.91
2023-09-05T17:57:40.182Z,25.85
2023-09-05T18:02:42.740Z,25.75
2023-09-05T18:07:44.350Z,25.63
2023-09-05T18:12:46.910Z,25.49
2023-09-05T18:17:48.573Z,25.35
2023-09-05T18:22:53.117Z,25.24
2023-09-05T18:27:54.709Z,25.23
2023-09-05T18:32:57.023Z,25.14
2023-09-05T18:38:03.648Z,25.10
2023-09-05T18:43:05.192Z,25.03
2023-09-05T18:48:06.902Z,24.92
2023-09-05T18:53:09.703Z,24.70
2023-09-05T18:58:12.936Z,24.61
2023-09-05T19:03:14.619Z,24.52
2023-09-05T19:08:16.366Z,24.45
2023-09-05T19:13:17.798Z,24.32
2023-09-05T19:18:19.285Z,24.24
2023-09-05T19:23:20.966Z,24.17
2023-09-05T19:28:22.415Z,24.09
2023-09-05T19:33:26.176Z,24.05
2023-09-05T19:38:29.136Z,24.01
2023-09-05T19:43:30.809Z,23.97
2023-09-05T19:48:32.913Z,23.90
2023-09-05T19:53:34.497Z,23.87
2023-09-05T19:58:36.502Z,23.75
2023-09-05T20:03:38.822Z,23.72
2023-09-05T20:08:40.852Z,23.62
2023-09-05T20:13:42.410Z,23.54
2023-09-05T20:18:44.090Z,23.32
2023-09-05T20:23:45.741Z,23.00
2023-09-05T20:28:47.222Z,22.83
2023-09-05T20:33:48.746Z,22.59
2023-09-05T20:38:50.242Z,22.30
2023-09-05T20:43:53.613Z,21.86
2023-09-05T20:48:55.315Z,21.46
2023-09-05T20:53:56.997Z,21.27
2023-09-05T20:58:58.493Z,21.14
2023-09-05T21:04:00.173Z,21.02
2023-09-05T21:09:01.854Z,20.90
2023-09-05T21:14:03.383Z,20.83
2023-09-05T21:19:04.997Z,20.69
2023-09-05T21:24:07.417Z,20.54
2023-09-05T21:29:08.923Z,20.58
2023-09-05T21:34:10.403Z,20.60
2023-09-05T21:39:11.916Z,20.58
2023-09-05T21:44:13.365Z,20.50
2023-09-05T21:49:15.860Z,20.48
2023-09-05T21:54:17.948Z,20.45
2023-09-05T21:59:19.460Z,20.63
2023-09-05T22:04:21.050Z,20.78
2023-09-05T22:09:22.608Z,21.29
2023-09-05T22:14:24.323Z,21.47
2023-09-05T22:19:29.547Z,21.63
2023-09-05T22:24:31.585Z,21.58
2023-09-05T22:29:33.108Z,21.77
2023-09-05T22:34:34.645Z,21.79
2023-09-05T22:39:36.177Z,21.73
2023-09-05T22:44:37.725Z,21.75
2023-09-05T22:49:39.735Z,21.65
2023-09-05T22:54:43.260Z,21.78
2023-09-05T22:59:44.827Z,21.84
2023-09-05T23:04:46.678Z,21.71
2023-09-05T23:09:49.711Z,21.57
2023-09-05T23:14:51.215Z,21.51
2023-09-05T23:19:52.647Z,21.46
2023-09-05T23:24:55.597Z,21.57
2023-09-05T23:29:57.176Z,21.58
2023-09-05T23:35:00.596Z,21.58
2023-09-05T23:40:07.166Z,21.48
2023-09-05T23:45:09.232Z,21.35
2023-09-05T23:50:11.028Z,21.12
2023-09-05T23:55:12.551Z,21.12
